RJNK

Komatsu Airport

Airport
ICAO code
RJNK
IATA Code
KMQ
Summary
ICAO Region
APAC
ICAO Territory
Location

Komatsu, Ishikawa Prefecture

Serving
Komatsu
Elevation
22 ft
Coordinates
36° 24' 6" N , 136° 24' 48" E
KCC
Metar
Observation
RJNK 031900Z 19009KT 9999 -SHRA FEW015 BKN030 BKN050 02/M01 Q1017
Station
Komatsu Ab
Date/Time
2023-02-03 20:00:00
Wind direction
190°
Wind speed
09 kts
Lowest cloud amount
few clouds
Temperature
2°C
Dew point
-1°C
Humidity
80%
QNH
1017 hPa
Weather condition
light showers rain

International airport located 4.2 km west southwest of the city of Komatsu, Ishikawa Prefecture, Japan.

Climatology

Humid Sub-tropical climate (Köppen climate classification Cfa)

Runways

Designator Length Width Surface Rops
6/24 2701 46 PEM Yes/Yes
06T/24T 2705 45 ASP No/No

Airport map

Aerial View

SKYbrary Partners:

Safety knowledge contributed by: